sensor_id;sensor_type;location;lat;lon;timestamp;P1;durP1;ratioP1;P2;durP2;ratioP2
15246;SDS011;7726;48.820;9.248;2023-01-20T00:01:06;12.53;;;8.93;;
15246;SDS011;7726;48.820;9.248;2023-01-20T00:03:36;11.67;;;9.27;;
15246;SDS011;7726;48.820;9.248;2023-01-20T00:06:03;13.40;;;8.67;;
15246;SDS011;7726;48.820;9.248;2023-01-20T00:08:31;14.90;;;9.27;;
15246;SDS011;7726;48.820;9.248;2023-01-20T00:11:02;12.17;;;9.27;;
15246;SDS011;7726;48.820;9.248;2023-01-20T00:13:29;13.97;;;10.37;;
15246;SDS011;7726;48.820;9.248;2023-01-20T00:15:56;11.77;;;9.43;;
15246;SDS011;7726;48.820;9.248;2023-01-20T00:18:23;11.43;;;9.53;;
15246;SDS011;7726;48.820;9.248;2023-01-20T00:20:50;12.57;;;8.93;;
15246;SDS011;7726;48.820;9.248;2023-01-20T00:23:17;14.80;;;9.40;;
15246;SDS011;7726;48.820;9.248;2023-01-20T00:25:46;13.97;;;9.23;;
15246;SDS011;7726;48.820;9.248;2023-01-20T00:28:13;11.90;;;8.90;;
15246;SDS011;7726;48.820;9.248;2023-01-20T00:30:40;10.37;;;8.27;;
15246;SDS011;7726;48.820;9.248;2023-01-20T00:33:07;10.07;;;8.40;;
15246;SDS011;7726;48.820;9.248;2023-01-20T00:35:35;14.30;;;8.83;;
15246;SDS011;7726;48.820;9.248;2023-01-20T00:38:02;10.97;;;8.33;;
15246;SDS011;7726;48.820;9.248;2023-01-20T00:40:29;13.23;;;9.40;;
15246;SDS011;7726;48.820;9.248;2023-01-20T00:42:58;11.87;;;9.33;;
15246;SDS011;7726;48.820;9.248;2023-01-20T00:45:25;11.83;;;8.67;;
15246;SDS011;7726;48.820;9.248;2023-01-20T00:47:52;13.00;;;9.40;;
15246;SDS011;7726;48.820;9.248;2023-01-20T00:50:19;11.17;;;8.43;;
15246;SDS011;7726;48.820;9.248;2023-01-20T00:52:46;14.00;;;8.80;;
15246;SDS011;7726;48.820;9.248;2023-01-20T00:55:13;12.37;;;8.70;;
15246;SDS011;7726;48.820;9.248;2023-01-20T00:57:40;12.67;;;9.80;;
15246;SDS011;7726;48.820;9.248;2023-01-20T01:00:09;10.77;;;8.67;;
15246;SDS011;7726;48.820;9.248;2023-01-20T01:02:36;11.43;;;9.13;;
15246;SDS011;7726;48.820;9.248;2023-01-20T01:05:04;12.53;;;8.60;;
15246;SDS011;7726;48.820;9.248;2023-01-20T01:07:32;9.83;;;8.03;;
15246;SDS011;7726;48.820;9.248;2023-01-20T01:09:59;12.03;;;8.73;;
15246;SDS011;7726;48.820;9.248;2023-01-20T01:12:26;12.30;;;8.70;;
15246;SDS011;7726;48.820;9.248;2023-01-20T01:14:53;11.17;;;8.53;;
15246;SDS011;7726;48.820;9.248;2023-01-20T01:17:22;12.67;;;9.20;;
15246;SDS011;7726;48.820;9.248;2023-01-20T01:19:50;16.97;;;9.47;;
15246;SDS011;7726;48.820;9.248;2023-01-20T01:22:18;11.83;;;8.13;;
15246;SDS011;7726;48.820;9.248;2023-01-20T01:24:45;13.70;;;8.97;;
15246;SDS011;7726;48.820;9.248;2023-01-20T01:27:13;10.67;;;8.03;;
15246;SDS011;7726;48.820;9.248;2023-01-20T01:29:40;10.43;;;9.00;;
15246;SDS011;7726;48.820;9.248;2023-01-20T01:32:07;12.47;;;9.07;;
15246;SDS011;7726;48.820;9.248;2023-01-20T01:34:35;12.27;;;8.73;;
15246;SDS011;7726;48.820;9.248;2023-01-20T01:37:02;11.37;;;9.10;;
15246;SDS011;7726;48.820;9.248;2023-01-20T01:39:30;15.40;;;9.07;;
15246;SDS011;7726;48.820;9.248;2023-01-20T01:41:57;11.10;;;8.77;;
15246;SDS011;7726;48.820;9.248;2023-01-20T01:44:24;11.57;;;9.07;;
15246;SDS011;7726;48.820;9.248;2023-01-20T01:46:52;11.70;;;9.77;;
15246;SDS011;7726;48.820;9.248;2023-01-20T01:49:20;14.17;;;9.77;;
15246;SDS011;7726;48.820;9.248;2023-01-20T01:51:50;14.57;;;9.07;;
15246;SDS011;7726;48.820;9.248;2023-01-20T01:54:19;17.40;;;10.17;;
15246;SDS011;7726;48.820;9.248;2023-01-20T01:56:47;12.13;;;8.97;;
15246;SDS011;7726;48.820;9.248;2023-01-20T01:59:15;12.70;;;9.20;;
15246;SDS011;7726;48.820;9.248;2023-01-20T02:01:44;13.20;;;9.93;;
15246;SDS011;7726;48.820;9.248;2023-01-20T02:04:12;15.17;;;9.43;;
15246;SDS011;7726;48.820;9.248;2023-01-20T02:06:40;11.53;;;9.20;;
15246;SDS011;7726;48.820;9.248;2023-01-20T02:09:09;12.53;;;9.40;;
15246;SDS011;7726;48.820;9.248;2023-01-20T02:11:38;13.40;;;9.40;;
15246;SDS011;7726;48.820;9.248;2023-01-20T02:14:07;13.03;;;9.70;;
15246;SDS011;7726;48.820;9.248;2023-01-20T02:16:37;12.53;;;9.20;;
15246;SDS011;7726;48.820;9.248;2023-01-20T02:19:13;12.77;;;9.60;;
15246;SDS011;7726;48.820;9.248;2023-01-20T02:21:57;15.57;;;10.03;;
15246;SDS011;7726;48.820;9.248;2023-01-20T02:24:37;11.63;;;9.23;;
15246;SDS011;7726;48.820;9.248;2023-01-20T02:27:10;11.20;;;8.90;;
15246;SDS011;7726;48.820;9.248;2023-01-20T02:29:41;12.57;;;9.70;;
15246;SDS011;7726;48.820;9.248;2023-01-20T02:32:18;15.00;;;9.40;;
15246;SDS011;7726;48.820;9.248;2023-01-20T02:34:50;14.43;;;9.07;;
15246;SDS011;7726;48.820;9.248;2023-01-20T02:37:21;10.90;;;8.73;;
15246;SDS011;7726;48.820;9.248;2023-01-20T02:39:52;12.00;;;9.23;;
15246;SDS011;7726;48.820;9.248;2023-01-20T02:42:22;12.87;;;9.67;;
15246;SDS011;7726;48.820;9.248;2023-01-20T02:44:51;14.63;;;9.80;;
15246;SDS011;7726;48.820;9.248;2023-01-20T02:47:22;13.50;;;9.63;;
15246;SDS011;7726;48.820;9.248;2023-01-20T02:49:51;13.87;;;10.73;;
15246;SDS011;7726;48.820;9.248;2023-01-20T02:52:20;12.90;;;10.33;;
15246;SDS011;7726;48.820;9.248;2023-01-20T02:54:48;15.87;;;10.60;;
15246;SDS011;7726;48.820;9.248;2023-01-20T02:57:20;14.63;;;9.83;;
15246;SDS011;7726;48.820;9.248;2023-01-20T02:59:52;16.30;;;10.33;;
15246;SDS011;7726;48.820;9.248;2023-01-20T03:02:22;14.90;;;10.00;;
15246;SDS011;7726;48.820;9.248;2023-01-20T03:04:54;15.17;;;10.23;;
15246;SDS011;7726;48.820;9.248;2023-01-20T03:07:24;13.00;;;10.07;;
15246;SDS011;7726;48.820;9.248;2023-01-20T03:09:52;12.90;;;10.00;;
15246;SDS011;7726;48.820;9.248;2023-01-20T03:12:22;15.50;;;10.80;;
15246;SDS011;7726;48.820;9.248;2023-01-20T03:14:50;13.47;;;10.07;;
15246;SDS011;7726;48.820;9.248;2023-01-20T03:17:18;12.57;;;9.30;;
15246;SDS011;7726;48.820;9.248;2023-01-20T03:19:46;14.03;;;10.73;;
15246;SDS011;7726;48.820;9.248;2023-01-20T03:22:14;12.83;;;10.73;;
15246;SDS011;7726;48.820;9.248;2023-01-20T03:24:41;12.73;;;10.93;;
15246;SDS011;7726;48.820;9.248;2023-01-20T03:27:09;12.90;;;10.80;;
15246;SDS011;7726;48.820;9.248;2023-01-20T03:29:36;13.10;;;10.13;;
15246;SDS011;7726;48.820;9.248;2023-01-20T03:32:04;13.50;;;10.53;;
15246;SDS011;7726;48.820;9.248;2023-01-20T03:34:32;16.77;;;11.07;;
15246;SDS011;7726;48.820;9.248;2023-01-20T03:37:02;14.40;;;10.23;;
15246;SDS011;7726;48.820;9.248;2023-01-20T03:39:29;14.57;;;10.93;;
15246;SDS011;7726;48.820;9.248;2023-01-20T03:42:00;12.03;;;9.53;;
15246;SDS011;7726;48.820;9.248;2023-01-20T03:44:32;11.73;;;9.40;;
15246;SDS011;7726;48.820;9.248;2023-01-20T03:47:04;14.37;;;9.80;;
15246;SDS011;7726;48.820;9.248;2023-01-20T03:49:34;12.77;;;9.13;;
15246;SDS011;7726;48.820;9.248;2023-01-20T03:52:05;12.30;;;9.53;;
15246;SDS011;7726;48.820;9.248;2023-01-20T03:54:35;14.20;;;9.00;;
15246;SDS011;7726;48.820;9.248;2023-01-20T03:57:05;11.67;;;8.90;;
15246;SDS011;7726;48.820;9.248;2023-01-20T03:59:34;11.47;;;9.03;;
15246;SDS011;7726;48.820;9.248;2023-01-20T04:02:03;14.47;;;8.80;;
15246;SDS011;7726;48.820;9.248;2023-01-20T04:04:31;13.03;;;8.63;;
15246;SDS011;7726;48.820;9.248;2023-01-20T04:06:59;10.33;;;8.13;;
15246;SDS011;7726;48.820;9.248;2023-01-20T04:09:28;8.40;;;7.53;;
15246;SDS011;7726;48.820;9.248;2023-01-20T04:11:57;10.77;;;8.23;;
15246;SDS011;7726;48.820;9.248;2023-01-20T04:14:24;11.70;;;7.80;;
15246;SDS011;7726;48.820;9.248;2023-01-20T04:16:52;10.50;;;8.40;;
15246;SDS011;7726;48.820;9.248;2023-01-20T04:19:20;10.87;;;8.27;;
15246;SDS011;7726;48.820;9.248;2023-01-20T04:21:47;10.90;;;8.00;;
15246;SDS011;7726;48.820;9.248;2023-01-20T04:24:16;12.97;;;8.83;;
15246;SDS011;7726;48.820;9.248;2023-01-20T04:26:46;11.07;;;7.73;;
15246;SDS011;7726;48.820;9.248;2023-01-20T04:29:13;13.07;;;8.57;;
15246;SDS011;7726;48.820;9.248;2023-01-20T04:31:41;11.67;;;8.07;;
15246;SDS011;7726;48.820;9.248;2023-01-20T04:34:08;9.57;;;7.53;;
15246;SDS011;7726;48.820;9.248;2023-01-20T04:36:37;9.83;;;7.47;;
15246;SDS011;7726;48.820;9.248;2023-01-20T04:39:04;9.77;;;7.60;;
15246;SDS011;7726;48.820;9.248;2023-01-20T04:41:31;13.00;;;8.00;;
15246;SDS011;7726;48.820;9.248;2023-01-20T04:44:00;12.63;;;8.00;;
15246;SDS011;7726;48.820;9.248;2023-01-20T04:46:27;11.43;;;8.53;;
15246;SDS011;7726;48.820;9.248;2023-01-20T04:48:54;9.53;;;7.67;;
15246;SDS011;7726;48.820;9.248;2023-01-20T04:51:21;13.07;;;8.10;;
15246;SDS011;7726;48.820;9.248;2023-01-20T04:53:48;9.50;;;7.83;;
15246;SDS011;7726;48.820;9.248;2023-01-20T04:56:15;13.17;;;7.97;;
15246;SDS011;7726;48.820;9.248;2023-01-20T04:58:42;12.13;;;8.50;;
15246;SDS011;7726;48.820;9.248;2023-01-20T05:01:11;12.30;;;8.77;;
15246;SDS011;7726;48.820;9.248;2023-01-20T05:03:38;11.53;;;8.60;;
15246;SDS011;7726;48.820;9.248;2023-01-20T05:06:05;11.90;;;9.00;;
15246;SDS011;7726;48.820;9.248;2023-01-20T05:08:32;12.63;;;8.97;;
15246;SDS011;7726;48.820;9.248;2023-01-20T05:10:59;14.27;;;9.00;;
15246;SDS011;7726;48.820;9.248;2023-01-20T05:13:26;12.43;;;9.73;;
15246;SDS011;7726;48.820;9.248;2023-01-20T05:15:53;12.30;;;8.97;;
15246;SDS011;7726;48.820;9.248;2023-01-20T05:18:22;11.27;;;9.13;;
15246;SDS011;7726;48.820;9.248;2023-01-20T05:20:49;11.40;;;9.70;;
15246;SDS011;7726;48.820;9.248;2023-01-20T05:23:16;14.30;;;9.40;;
15246;SDS011;7726;48.820;9.248;2023-01-20T05:25:48;12.60;;;9.47;;
15246;SDS011;7726;48.820;9.248;2023-01-20T05:28:15;11.70;;;8.87;;
15246;SDS011;7726;48.820;9.248;2023-01-20T05:30:42;13.00;;;9.63;;
15246;SDS011;7726;48.820;9.248;2023-01-20T05:33:09;11.77;;;8.70;;
15246;SDS011;7726;48.820;9.248;2023-01-20T05:35:37;12.83;;;8.97;;
15246;SDS011;7726;48.820;9.248;2023-01-20T05:38:05;11.13;;;9.03;;
15246;SDS011;7726;48.820;9.248;2023-01-20T05:40:32;12.47;;;8.93;;
15246;SDS011;7726;48.820;9.248;2023-01-20T05:42:59;11.00;;;8.40;;
15246;SDS011;7726;48.820;9.248;2023-01-20T05:45:26;10.60;;;8.13;;
15246;SDS011;7726;48.820;9.248;2023-01-20T05:47:53;11.47;;;8.10;;
15246;SDS011;7726;48.820;9.248;2023-01-20T05:50:22;9.23;;;7.60;;
15246;SDS011;7726;48.820;9.248;2023-01-20T05:52:50;10.00;;;8.00;;
15246;SDS011;7726;48.820;9.248;2023-01-20T05:55:18;9.67;;;7.90;;
15246;SDS011;7726;48.820;9.248;2023-01-20T05:57:45;11.17;;;8.10;;
15246;SDS011;7726;48.820;9.248;2023-01-20T06:00:12;8.83;;;7.37;;
15246;SDS011;7726;48.820;9.248;2023-01-20T06:02:39;10.20;;;8.07;;
15246;SDS011;7726;48.820;9.248;2023-01-20T06:05:06;10.67;;;7.93;;
15246;SDS011;7726;48.820;9.248;2023-01-20T06:07:33;9.47;;;8.13;;
15246;SDS011;7726;48.820;9.248;2023-01-20T06:10:02;10.60;;;7.87;;
15246;SDS011;7726;48.820;9.248;2023-01-20T06:12:29;10.57;;;8.10;;
15246;SDS011;7726;48.820;9.248;2023-01-20T06:14:56;10.03;;;7.80;;
15246;SDS011;7726;48.820;9.248;2023-01-20T06:17:23;11.43;;;8.63;;
15246;SDS011;7726;48.820;9.248;2023-01-20T06:19:50;8.77;;;7.53;;
15246;SDS011;7726;48.820;9.248;2023-01-20T06:22:17;13.57;;;8.50;;
15246;SDS011;7726;48.820;9.248;2023-01-20T06:24:45;11.47;;;7.97;;
15246;SDS011;7726;48.820;9.248;2023-01-20T06:27:13;10.03;;;8.00;;
15246;SDS011;7726;48.820;9.248;2023-01-20T06:29:41;11.60;;;8.07;;
15246;SDS011;7726;48.820;9.248;2023-01-20T06:32:08;10.53;;;8.13;;
15246;SDS011;7726;48.820;9.248;2023-01-20T06:34:35;11.33;;;8.33;;
15246;SDS011;7726;48.820;9.248;2023-01-20T06:37:02;10.17;;;8.60;;
15246;SDS011;7726;48.820;9.248;2023-01-20T06:39:29;10.50;;;7.70;;
15246;SDS011;7726;48.820;9.248;2023-01-20T06:41:56;11.00;;;7.67;;
15246;SDS011;7726;48.820;9.248;2023-01-20T06:44:25;9.43;;;8.17;;
15246;SDS011;7726;48.820;9.248;2023-01-20T06:46:52;11.40;;;7.80;;
15246;SDS011;7726;48.820;9.248;2023-01-20T06:49:21;9.57;;;7.63;;
15246;SDS011;7726;48.820;9.248;2023-01-20T06:51:48;11.47;;;7.80;;
15246;SDS011;7726;48.820;9.248;2023-01-20T06:54:15;9.23;;;7.23;;
15246;SDS011;7726;48.820;9.248;2023-01-20T06:56:43;11.73;;;8.27;;
15246;SDS011;7726;48.820;9.248;2023-01-20T06:59:10;11.00;;;7.27;;
15246;SDS011;7726;48.820;9.248;2023-01-20T07:01:38;12.30;;;7.67;;
15246;SDS011;7726;48.820;9.248;2023-01-20T07:04:06;10.60;;;7.73;;
15246;SDS011;7726;48.820;9.248;2023-01-20T07:06:34;12.00;;;7.57;;
15246;SDS011;7726;48.820;9.248;2023-01-20T07:09:03;8.43;;;7.50;;
15246;SDS011;7726;48.820;9.248;2023-01-20T07:11:30;8.90;;;7.07;;
15246;SDS011;7726;48.820;9.248;2023-01-20T07:13:59;11.60;;;7.13;;
15246;SDS011;7726;48.820;9.248;2023-01-20T07:16:26;8.93;;;7.53;;
15246;SDS011;7726;48.820;9.248;2023-01-20T07:18:54;9.73;;;6.63;;
15246;SDS011;7726;48.820;9.248;2023-01-20T07:21:22;10.90;;;7.63;;
15246;SDS011;7726;48.820;9.248;2023-01-20T07:23:49;10.93;;;7.73;;
15246;SDS011;7726;48.820;9.248;2023-01-20T07:26:17;7.70;;;6.60;;
15246;SDS011;7726;48.820;9.248;2023-01-20T07:28:45;8.93;;;6.57;;
15246;SDS011;7726;48.820;9.248;2023-01-20T07:31:13;7.30;;;6.53;;
15246;SDS011;7726;48.820;9.248;2023-01-20T07:33:40;8.77;;;6.70;;
15246;SDS011;7726;48.820;9.248;2023-01-20T07:36:09;9.40;;;7.23;;
15246;SDS011;7726;48.820;9.248;2023-01-20T07:38:37;9.80;;;7.87;;
15246;SDS011;7726;48.820;9.248;2023-01-20T07:41:05;9.97;;;7.40;;
15246;SDS011;7726;48.820;9.248;2023-01-20T07:43:32;8.67;;;6.73;;
15246;SDS011;7726;48.820;9.248;2023-01-20T07:46:00;8.73;;;7.20;;
15246;SDS011;7726;48.820;9.248;2023-01-20T07:48:30;9.80;;;7.10;;
15246;SDS011;7726;48.820;9.248;2023-01-20T07:50:58;8.93;;;6.83;;
15246;SDS011;7726;48.820;9.248;2023-01-20T07:53:28;8.90;;;6.70;;
15246;SDS011;7726;48.820;9.248;2023-01-20T07:55:55;11.20;;;7.87;;
15246;SDS011;7726;48.820;9.248;2023-01-20T07:58:22;8.17;;;6.50;;
15246;SDS011;7726;48.820;9.248;2023-01-20T08:00:49;9.40;;;6.83;;
15246;SDS011;7726;48.820;9.248;2023-01-20T08:03:16;12.07;;;7.67;;
15246;SDS011;7726;48.820;9.248;2023-01-20T08:05:43;9.40;;;7.10;;
15246;SDS011;7726;48.820;9.248;2023-01-20T08:08:10;8.47;;;7.00;;
15246;SDS011;7726;48.820;9.248;2023-01-20T08:10:39;10.07;;;7.30;;
15246;SDS011;7726;48.820;9.248;2023-01-20T08:13:09;10.87;;;7.60;;
15246;SDS011;7726;48.820;9.248;2023-01-20T08:15:36;9.50;;;7.80;;
15246;SDS011;7726;48.820;9.248;2023-01-20T08:20:45;11.03;;;7.67;;
15246;SDS011;7726;48.820;9.248;2023-01-20T08:23:12;12.43;;;7.73;;
15246;SDS011;7726;48.820;9.248;2023-01-20T08:25:41;7.97;;;6.87;;
15246;SDS011;7726;48.820;9.248;2023-01-20T08:28:08;8.50;;;7.03;;
15246;SDS011;7726;48.820;9.248;2023-01-20T08:30:35;11.07;;;7.50;;
15246;SDS011;7726;48.820;9.248;2023-01-20T08:33:02;10.17;;;7.80;;
15246;SDS011;7726;48.820;9.248;2023-01-20T08:35:29;7.37;;;6.60;;
15246;SDS011;7726;48.820;9.248;2023-01-20T08:37:56;8.73;;;7.17;;
15246;SDS011;7726;48.820;9.248;2023-01-20T08:40:23;10.37;;;8.27;;
15246;SDS011;7726;48.820;9.248;2023-01-20T08:42:52;9.70;;;7.27;;
15246;SDS011;7726;48.820;9.248;2023-01-20T08:45:19;11.83;;;7.47;;
15246;SDS011;7726;48.820;9.248;2023-01-20T08:47:46;10.97;;;7.73;;
15246;SDS011;7726;48.820;9.248;2023-01-20T08:50:14;9.60;;;7.63;;
15246;SDS011;7726;48.820;9.248;2023-01-20T08:52:41;8.70;;;7.40;;
15246;SDS011;7726;48.820;9.248;2023-01-20T08:55:08;11.70;;;7.87;;
15246;SDS011;7726;48.820;9.248;2023-01-20T08:57:36;11.30;;;7.70;;
15246;SDS011;7726;48.820;9.248;2023-01-20T09:00:06;10.20;;;7.97;;
15246;SDS011;7726;48.820;9.248;2023-01-20T09:02:35;10.80;;;7.73;;
15246;SDS011;7726;48.820;9.248;2023-01-20T09:05:05;10.73;;;7.60;;
15246;SDS011;7726;48.820;9.248;2023-01-20T09:07:33;14.00;;;8.47;;
15246;SDS011;7726;48.820;9.248;2023-01-20T09:10:00;11.70;;;7.97;;
15246;SDS011;7726;48.820;9.248;2023-01-20T09:12:27;10.63;;;8.20;;
15246;SDS011;7726;48.820;9.248;2023-01-20T09:14:54;10.33;;;7.83;;
15246;SDS011;7726;48.820;9.248;2023-01-20T09:17:22;10.23;;;8.03;;
15246;SDS011;7726;48.820;9.248;2023-01-20T09:19:50;12.33;;;9.07;;
15246;SDS011;7726;48.820;9.248;2023-01-20T09:22:17;12.57;;;9.70;;
15246;SDS011;7726;48.820;9.248;2023-01-20T09:24:44;11.53;;;8.50;;
15246;SDS011;7726;48.820;9.248;2023-01-20T09:27:11;9.77;;;8.37;;
15246;SDS011;7726;48.820;9.248;2023-01-20T09:29:38;11.43;;;8.60;;
15246;SDS011;7726;48.820;9.248;2023-01-20T09:32:05;11.43;;;8.50;;
15246;SDS011;7726;48.820;9.248;2023-01-20T09:34:33;11.73;;;8.57;;
15246;SDS011;7726;48.820;9.248;2023-01-20T09:37:01;11.40;;;8.23;;
15246;SDS011;7726;48.820;9.248;2023-01-20T09:39:42;12.50;;;7.90;;
15246;SDS011;7726;48.820;9.248;2023-01-20T09:42:28;11.20;;;8.57;;
15246;SDS011;7726;48.820;9.248;2023-01-20T09:45:19;11.80;;;8.00;;
15246;SDS011;7726;48.820;9.248;2023-01-20T09:47:50;9.10;;;7.93;;
15246;SDS011;7726;48.820;9.248;2023-01-20T09:53:23;9.73;;;8.17;;
15246;SDS011;7726;48.820;9.248;2023-01-20T09:55:55;9.80;;;7.97;;
15246;SDS011;7726;48.820;9.248;2023-01-20T09:58:24;11.53;;;8.60;;
15246;SDS011;7726;48.820;9.248;2023-01-20T10:00:54;12.50;;;8.67;;
15246;SDS011;7726;48.820;9.248;2023-01-20T10:03:26;9.97;;;8.50;;
15246;SDS011;7726;48.820;9.248;2023-01-20T10:06:01;11.60;;;7.87;;
15246;SDS011;7726;48.820;9.248;2023-01-20T10:08:34;11.50;;;8.13;;
15246;SDS011;7726;48.820;9.248;2023-01-20T10:11:04;10.23;;;8.30;;
15246;SDS011;7726;48.820;9.248;2023-01-20T10:13:33;10.33;;;7.60;;
15246;SDS011;7726;48.820;9.248;2023-01-20T10:16:03;9.90;;;8.17;;
15246;SDS011;7726;48.820;9.248;2023-01-20T10:18:36;11.23;;;8.00;;
15246;SDS011;7726;48.820;9.248;2023-01-20T10:21:07;10.60;;;7.97;;
15246;SDS011;7726;48.820;9.248;2023-01-20T10:23:39;10.77;;;8.33;;
15246;SDS011;7726;48.820;9.248;2023-01-20T10:26:08;10.93;;;8.67;;
15246;SDS011;7726;48.820;9.248;2023-01-20T10:28:38;11.97;;;8.30;;
15246;SDS011;7726;48.820;9.248;2023-01-20T10:31:06;15.37;;;8.97;;
15246;SDS011;7726;48.820;9.248;2023-01-20T10:33:36;13.63;;;9.30;;
15246;SDS011;7726;48.820;9.248;2023-01-20T10:36:04;17.20;;;10.77;;
15246;SDS011;7726;48.820;9.248;2023-01-20T10:38:35;12.47;;;9.90;;
15246;SDS011;7726;48.820;9.248;2023-01-20T10:41:06;13.93;;;10.43;;
15246;SDS011;7726;48.820;9.248;2023-01-20T10:43:37;14.13;;;10.27;;
15246;SDS011;7726;48.820;9.248;2023-01-20T10:46:09;14.97;;;10.87;;
15246;SDS011;7726;48.820;9.248;2023-01-20T10:48:44;13.53;;;9.20;;
15246;SDS011;7726;48.820;9.248;2023-01-20T10:51:14;10.70;;;8.93;;
15246;SDS011;7726;48.820;9.248;2023-01-20T10:53:46;10.10;;;8.50;;
15246;SDS011;7726;48.820;9.248;2023-01-20T10:56:22;11.30;;;8.53;;
15246;SDS011;7726;48.820;9.248;2023-01-20T10:58:51;11.77;;;8.73;;
15246;SDS011;7726;48.820;9.248;2023-01-20T11:01:18;10.87;;;7.93;;
15246;SDS011;7726;48.820;9.248;2023-01-20T11:03:46;12.57;;;8.20;;
15246;SDS011;7726;48.820;9.248;2023-01-20T11:06:16;9.03;;;6.93;;
15246;SDS011;7726;48.820;9.248;2023-01-20T11:08:44;14.13;;;8.77;;
15246;SDS011;7726;48.820;9.248;2023-01-20T11:11:12;11.90;;;7.93;;
15246;SDS011;7726;48.820;9.248;2023-01-20T11:13:42;10.07;;;8.53;;
15246;SDS011;7726;48.820;9.248;2023-01-20T11:16:10;11.23;;;8.00;;
15246;SDS011;7726;48.820;9.248;2023-01-20T11:18:38;10.87;;;8.60;;
15246;SDS011;7726;48.820;9.248;2023-01-20T11:21:06;9.93;;;7.47;;
15246;SDS011;7726;48.820;9.248;2023-01-20T11:23:35;13.60;;;8.20;;
15246;SDS011;7726;48.820;9.248;2023-01-20T11:26:03;13.33;;;8.13;;
15246;SDS011;7726;48.820;9.248;2023-01-20T11:28:36;10.60;;;7.77;;
15246;SDS011;7726;48.820;9.248;2023-01-20T11:31:10;9.40;;;7.83;;
15246;SDS011;7726;48.820;9.248;2023-01-20T11:33:37;10.00;;;7.93;;
15246;SDS011;7726;48.820;9.248;2023-01-20T11:36:05;11.50;;;7.03;;
15246;SDS011;7726;48.820;9.248;2023-01-20T11:38:40;11.50;;;7.83;;
15246;SDS011;7726;48.820;9.248;2023-01-20T11:41:16;6.97;;;5.70;;
15246;SDS011;7726;48.820;9.248;2023-01-20T11:43:44;10.03;;;7.10;;
15246;SDS011;7726;48.820;9.248;2023-01-20T11:46:25;6.50;;;5.47;;
15246;SDS011;7726;48.820;9.248;2023-01-20T11:49:12;6.03;;;5.43;;
15246;SDS011;7726;48.820;9.248;2023-01-20T11:51:43;9.20;;;5.27;;
15246;SDS011;7726;48.820;9.248;2023-01-20T11:54:12;5.70;;;4.47;;
15246;SDS011;7726;48.820;9.248;2023-01-20T11:56:41;6.77;;;4.93;;
15246;SDS011;7726;48.820;9.248;2023-01-20T11:59:16;7.30;;;4.97;;
15246;SDS011;7726;48.820;9.248;2023-01-20T12:01:53;5.53;;;5.00;;
15246;SDS011;7726;48.820;9.248;2023-01-20T12:04:28;8.43;;;5.20;;
15246;SDS011;7726;48.820;9.248;2023-01-20T12:06:59;8.07;;;6.13;;
15246;SDS011;7726;48.820;9.248;2023-01-20T12:09:29;7.90;;;4.93;;
15246;SDS011;7726;48.820;9.248;2023-01-20T12:11:58;9.40;;;5.90;;
15246;SDS011;7726;48.820;9.248;2023-01-20T12:14:28;9.37;;;5.43;;
15246;SDS011;7726;48.820;9.248;2023-01-20T12:17:14;6.17;;;5.23;;
15246;SDS011;7726;48.820;9.248;2023-01-20T12:19:50;6.53;;;5.10;;
15246;SDS011;7726;48.820;9.248;2023-01-20T12:22:20;7.63;;;4.50;;
15246;SDS011;7726;48.820;9.248;2023-01-20T12:24:51;6.67;;;4.67;;
15246;SDS011;7726;48.820;9.248;2023-01-20T12:27:41;4.80;;;3.87;;
15246;SDS011;7726;48.820;9.248;2023-01-20T12:30:14;6.80;;;3.90;;
15246;SDS011;7726;48.820;9.248;2023-01-20T12:32:44;6.50;;;4.33;;
15246;SDS011;7726;48.820;9.248;2023-01-20T12:35:11;6.37;;;4.10;;
15246;SDS011;7726;48.820;9.248;2023-01-20T12:37:41;5.03;;;4.10;;
15246;SDS011;7726;48.820;9.248;2023-01-20T12:40:19;5.77;;;3.93;;
15246;SDS011;7726;48.820;9.248;2023-01-20T12:45:33;5.57;;;4.60;;
15246;SDS011;7726;48.820;9.248;2023-01-20T12:48:09;7.30;;;5.20;;
15246;SDS011;7726;48.820;9.248;2023-01-20T12:50:45;6.60;;;4.90;;
15246;SDS011;7726;48.820;9.248;2023-01-20T12:53:17;6.13;;;4.37;;
15246;SDS011;7726;48.820;9.248;2023-01-20T12:55:51;9.37;;;5.07;;
15246;SDS011;7726;48.820;9.248;2023-01-20T12:58:28;10.17;;;4.97;;
15246;SDS011;7726;48.820;9.248;2023-01-20T13:01:05;6.37;;;5.17;;
15246;SDS011;7726;48.820;9.248;2023-01-20T13:09:10;7.60;;;4.63;;
15246;SDS011;7726;48.820;9.248;2023-01-20T13:11:44;5.70;;;4.60;;
15246;SDS011;7726;48.820;9.248;2023-01-20T13:14:15;6.83;;;4.23;;
15246;SDS011;7726;48.820;9.248;2023-01-20T13:16:45;5.50;;;4.07;;
15246;SDS011;7726;48.820;9.248;2023-01-20T13:19:15;6.10;;;4.43;;
15246;SDS011;7726;48.820;9.248;2023-01-20T13:21:43;4.77;;;4.30;;
15246;SDS011;7726;48.820;9.248;2023-01-20T13:24:13;9.23;;;4.60;;
15246;SDS011;7726;48.820;9.248;2023-01-20T13:26:43;8.50;;;4.73;;
15246;SDS011;7726;48.820;9.248;2023-01-20T13:29:19;5.40;;;3.73;;
15246;SDS011;7726;48.820;9.248;2023-01-20T13:31:46;3.93;;;3.10;;
15246;SDS011;7726;48.820;9.248;2023-01-20T13:34:28;6.37;;;3.10;;
15246;SDS011;7726;48.820;9.248;2023-01-20T13:39:44;4.10;;;3.50;;
15246;SDS011;7726;48.820;9.248;2023-01-20T13:42:27;6.30;;;3.40;;
15246;SDS011;7726;48.820;9.248;2023-01-20T13:47:46;8.00;;;3.67;;
15246;SDS011;7726;48.820;9.248;2023-01-20T13:50:19;6.07;;;3.73;;
15246;SDS011;7726;48.820;9.248;2023-01-20T13:55:49;3.37;;;3.00;;
15246;SDS011;7726;48.820;9.248;2023-01-20T13:58:17;6.10;;;3.13;;
15246;SDS011;7726;48.820;9.248;2023-01-20T14:00:44;5.83;;;3.70;;
15246;SDS011;7726;48.820;9.248;2023-01-20T14:03:16;5.57;;;3.37;;
15246;SDS011;7726;48.820;9.248;2023-01-20T14:05:47;4.03;;;3.17;;
15246;SDS011;7726;48.820;9.248;2023-01-20T14:08:15;3.87;;;3.13;;
15246;SDS011;7726;48.820;9.248;2023-01-20T14:10:42;4.00;;;3.50;;
15246;SDS011;7726;48.820;9.248;2023-01-20T14:13:11;5.40;;;3.30;;
15246;SDS011;7726;48.820;9.248;2023-01-20T14:15:42;7.67;;;3.27;;
15246;SDS011;7726;48.820;9.248;2023-01-20T14:18:14;5.73;;;3.83;;
15246;SDS011;7726;48.820;9.248;2023-01-20T14:20:41;5.30;;;3.57;;
15246;SDS011;7726;48.820;9.248;2023-01-20T14:23:29;4.63;;;3.80;;
15246;SDS011;7726;48.820;9.248;2023-01-20T14:25:58;3.90;;;3.27;;
15246;SDS011;7726;48.820;9.248;2023-01-20T14:28:26;8.20;;;3.80;;
15246;SDS011;7726;48.820;9.248;2023-01-20T14:33:49;8.30;;;3.67;;
15246;SDS011;7726;48.820;9.248;2023-01-20T14:36:18;5.97;;;3.30;;
15246;SDS011;7726;48.820;9.248;2023-01-20T14:38:47;5.70;;;3.33;;
15246;SDS011;7726;48.820;9.248;2023-01-20T14:41:22;5.47;;;3.17;;
15246;SDS011;7726;48.820;9.248;2023-01-20T14:43:51;4.13;;;2.90;;
15246;SDS011;7726;48.820;9.248;2023-01-20T14:46:18;4.80;;;2.77;;
15246;SDS011;7726;48.820;9.248;2023-01-20T14:48:45;4.90;;;3.40;;
15246;SDS011;7726;48.820;9.248;2023-01-20T14:51:12;4.37;;;3.10;;
15246;SDS011;7726;48.820;9.248;2023-01-20T14:53:40;5.50;;;3.10;;
15246;SDS011;7726;48.820;9.248;2023-01-20T14:56:12;5.43;;;3.40;;
15246;SDS011;7726;48.820;9.248;2023-01-20T14:58:43;6.13;;;3.30;;
15246;SDS011;7726;48.820;9.248;2023-01-20T15:01:17;3.33;;;3.03;;
15246;SDS011;7726;48.820;9.248;2023-01-20T15:03:52;3.27;;;2.97;;
15246;SDS011;7726;48.820;9.248;2023-01-20T15:06:20;6.53;;;3.50;;
15246;SDS011;7726;48.820;9.248;2023-01-20T15:08:48;7.27;;;3.83;;
15246;SDS011;7726;48.820;9.248;2023-01-20T15:11:18;6.80;;;3.03;;
15246;SDS011;7726;48.820;9.248;2023-01-20T15:16:30;6.83;;;2.80;;
15246;SDS011;7726;48.820;9.248;2023-01-20T15:19:14;3.93;;;3.07;;
15246;SDS011;7726;48.820;9.248;2023-01-20T15:21:41;6.53;;;2.50;;
15246;SDS011;7726;48.820;9.248;2023-01-20T15:24:11;3.37;;;2.50;;
15246;SDS011;7726;48.820;9.248;2023-01-20T15:26:38;5.30;;;3.03;;
15246;SDS011;7726;48.820;9.248;2023-01-20T15:29:16;4.90;;;2.90;;
15246;SDS011;7726;48.820;9.248;2023-01-20T15:31:46;6.03;;;2.90;;
15246;SDS011;7726;48.820;9.248;2023-01-20T15:34:13;4.03;;;2.87;;